Time;durP1;ratioP1;P1;durP2;ratioP2;P2;SDS_P1;SDS_P2;PMS_P1;PMS_P2;Temp;Humidity;BMP_temperature;BMP_pressure;BME280_temperature;BME280_humidity;BME280_pressure;Samples;Min_cycle;Max_cycle;Signal;HPM_P1;HPM_P2
2021/01/26 00:01:30;;;;;;;38.17;21.38;;;;;;;;;;5037307;28;20037;-85
2021/01/26 00:03:56;;;;;;;33.67;19.00;;;;;;;;;;5037366;28;20084;-85
2021/01/26 00:06:22;;;;;;;30.17;18.67;;;;;;;;;;5037322;28;20403;-84
2021/01/26 00:08:48;;;;;;;28.52;18.08;;;;;;;;;;5037305;28;20415;-84
2021/01/26 00:11:14;;;;;;;24.90;15.02;;;;;;;;;;5036192;28;20029;-85
2021/01/26 00:13:40;;;;;;;26.73;15.38;;;;;;;;;;5036254;28;20458;-85
2021/01/26 00:16:07;;;;;;;27.42;15.85;;;;;;;;;;5037283;28;20349;-85
2021/01/26 00:18:33;;;;;;;31.48;16.55;;;;;;;;;;5036210;28;20087;-85
2021/01/26 00:20:59;;;;;;;29.48;16.48;;;;;;;;;;5036617;28;20109;-85
2021/01/26 00:23:26;;;;;;;30.02;16.55;;;;;;;;;;5036313;28;20033;-86
2021/01/26 00:25:52;;;;;;;25.23;15.60;;;;;;;;;;5037512;28;20289;-86
2021/01/26 00:28:18;;;;;;;25.98;15.85;;;;;;;;;;5036390;28;20028;-85
2021/01/26 00:30:45;;;;;;;26.83;16.23;;;;;;;;;;5037197;28;20436;-84
2021/01/26 00:33:16;;;;;;;25.55;16.17;;;;;;;;;;5036113;28;20320;-84
2021/01/26 00:35:42;;;;;;;27.27;17.15;;;;;;;;;;5036986;28;20022;-84
2021/01/26 00:38:08;;;;;;;28.33;17.38;;;;;;;;;;5037182;28;20021;-84
2021/01/26 00:40:35;;;;;;;31.15;18.33;;;;;;;;;;5037072;28;20156;-85
2021/01/26 00:43:01;;;;;;;33.65;18.77;;;;;;;;;;5036785;28;20046;-84
2021/01/26 00:45:30;;;;;;;30.67;18.33;;;;;;;;;;5037004;28;20450;-84
2021/01/26 00:47:56;;;;;;;33.70;19.42;;;;;;;;;;5040597;28;20038;-84
2021/01/26 00:50:22;;;;;;;38.28;20.20;;;;;;;;;;5040898;28;20347;-84
2021/01/26 00:52:48;;;;;;;36.05;20.25;;;;;;;;;;5040596;28;20032;-85
2021/01/26 00:55:15;;;;;;;35.28;21.48;;;;;;;;;;5040989;28;20071;-85
2021/01/26 00:57:41;;;;;;;42.08;22.67;;;;;;;;;;5040731;28;20048;-85
2021/01/26 01:00:09;;;;;;;37.10;21.27;;;;;;;;;;5039608;28;20029;-85
2021/01/26 01:02:35;;;;;;;33.10;20.38;;;;;;;;;;5040610;28;20485;-86
2021/01/26 01:05:01;;;;;;;36.47;20.65;;;;;;;;;;5040926;28;20029;-86
2021/01/26 01:07:27;;;;;;;34.53;20.52;;;;;;;;;;5040799;28;20033;-86
2021/01/26 01:09:53;;;;;;;34.03;21.23;;;;;;;;;;5040049;28;20036;-86
2021/01/26 01:12:19;;;;;;;37.55;21.83;;;;;;;;;;5040603;28;20171;-86
2021/01/26 01:14:45;;;;;;;29.67;19.40;;;;;;;;;;5040621;28;20025;-88
2021/01/26 01:17:11;;;;;;;31.95;21.00;;;;;;;;;;5040522;28;20067;-88
2021/01/26 01:19:37;;;;;;;29.75;18.52;;;;;;;;;;5039496;28;20021;-86
2021/01/26 01:22:04;;;;;;;31.02;18.98;;;;;;;;;;5040387;28;20032;-87
2021/01/26 01:24:30;;;;;;;31.10;19.52;;;;;;;;;;5040489;28;20313;-86
2021/01/26 01:26:56;;;;;;;52.47;27.92;;;;;;;;;;5040542;28;20034;-87
2021/01/26 01:29:22;;;;;;;40.53;22.90;;;;;;;;;;5040306;28;20028;-86
2021/01/26 01:31:48;;;;;;;34.70;20.75;;;;;;;;;;5040141;28;20040;-86
2021/01/26 01:34:14;;;;;;;33.22;20.63;;;;;;;;;;5040158;28;20026;-85
2021/01/26 01:36:41;;;;;;;36.75;21.60;;;;;;;;;;5039973;28;20070;-84
2021/01/26 01:39:08;;;;;;;35.15;21.30;;;;;;;;;;5040163;28;20100;-86
2021/01/26 01:41:38;;;;;;;33.92;20.95;;;;;;;;;;5039836;28;20073;-86
2021/01/26 01:44:05;;;;;;;37.63;20.58;;;;;;;;;;5039993;28;20415;-87
2021/01/26 01:46:32;;;;;;;35.97;22.05;;;;;;;;;;5039065;28;20036;-86
2021/01/26 01:48:59;;;;;;;32.78;19.40;;;;;;;;;;5039689;28;20021;-85
2021/01/26 01:51:27;;;;;;;37.22;21.38;;;;;;;;;;5039460;28;20040;-85
2021/01/26 01:53:59;;;;;;;31.92;18.90;;;;;;;;;;5038958;28;20332;-85
2021/01/26 01:56:25;;;;;;;31.52;18.33;;;;;;;;;;5039787;28;20030;-85
2021/01/26 01:58:55;;;;;;;31.25;18.80;;;;;;;;;;5039237;28;20022;-85
2021/01/26 02:01:21;;;;;;;38.38;21.35;;;;;;;;;;5039584;28;20030;-85
2021/01/26 02:03:51;;;;;;;37.78;21.30;;;;;;;;;;5039584;28;20021;-86
2021/01/26 02:06:18;;;;;;;35.50;19.75;;;;;;;;;;5039579;28;20490;-87
2021/01/26 02:08:57;;;;;;;32.90;19.40;;;;;;;;;;5039563;28;20026;-87
2021/01/26 02:11:23;;;;;;;35.00;19.05;;;;;;;;;;5039480;28;20040;-85
2021/01/26 02:13:50;;;;;;;35.92;19.83;;;;;;;;;;5039066;28;20507;-87
2021/01/26 02:16:29;;;;;;;35.88;19.02;;;;;;;;;;5039287;28;20032;-86
2021/01/26 02:18:55;;;;;;;35.72;19.98;;;;;;;;;;5039470;28;20029;-88
2021/01/26 02:21:50;;;;;;;35.83;20.27;;;;;;;;;;5039333;28;20025;-87
2021/01/26 02:24:16;;;;;;;33.53;20.20;;;;;;;;;;4981937;28;20089;-87
2021/01/26 02:26:52;;;;;;;32.72;20.25;;;;;;;;;;4998290;28;20038;-87
2021/01/26 02:29:25;;;;;;;30.20;18.95;;;;;;;;;;4998103;28;20057;-87
2021/01/26 02:32:10;;;;;;;32.13;19.58;;;;;;;;;;4998183;28;20417;-86
2021/01/26 02:34:55;;;;;;;30.23;19.63;;;;;;;;;;4997801;28;20038;-86
2021/01/26 02:37:21;;;;;;;33.10;20.75;;;;;;;;;;4997903;28;20030;-85
2021/01/26 02:40:05;;;;;;;34.20;20.50;;;;;;;;;;4981111;28;20053;-85
2021/01/26 02:42:34;;;;;;;35.22;20.73;;;;;;;;;;4981101;28;20086;-85
2021/01/26 02:45:22;;;;;;;30.85;19.40;;;;;;;;;;4997689;28;20030;-86
2021/01/26 02:48:07;;;;;;;42.25;25.80;;;;;;;;;;4997614;28;20144;-85
2021/01/26 02:50:36;;;;;;;48.15;38.13;;;;;;;;;;4997314;28;20034;-85
2021/01/26 02:53:14;;;;;;;40.67;28.73;;;;;;;;;;4997436;28;20030;-85
2021/01/26 02:56:06;;;;;;;35.33;21.15;;;;;;;;;;4997546;28;20030;-86
2021/01/26 02:58:35;;;;;;;31.70;19.65;;;;;;;;;;4997565;28;20037;-86
2021/01/26 03:01:02;;;;;;;29.98;19.40;;;;;;;;;;5024175;28;20029;-86
2021/01/26 03:03:47;;;;;;;34.20;21.50;;;;;;;;;;5038653;28;20028;-85
2021/01/26 03:06:21;;;;;;;34.55;21.60;;;;;;;;;;5038363;28;20117;-85
2021/01/26 03:08:52;;;;;;;34.85;20.58;;;;;;;;;;5037507;28;20125;-85
2021/01/26 03:11:27;;;;;;;33.47;20.83;;;;;;;;;;5038470;28;20033;-85
2021/01/26 03:13:56;;;;;;;35.95;21.20;;;;;;;;;;5038099;28;20025;-86
2021/01/26 03:16:24;;;;;;;32.33;20.52;;;;;;;;;;5037243;28;20033;-86
2021/01/26 03:18:53;;;;;;;38.95;21.42;;;;;;;;;;5037244;28;20022;-85
2021/01/26 03:21:20;;;;;;;34.63;21.08;;;;;;;;;;5038253;28;20018;-86
2021/01/26 03:23:54;;;;;;;34.58;21.00;;;;;;;;;;5038173;28;20017;-86
2021/01/26 03:26:22;;;;;;;32.90;20.60;;;;;;;;;;5038201;28;20071;-85
2021/01/26 03:28:55;;;;;;;35.80;23.92;;;;;;;;;;5038154;28;20020;-85
2021/01/26 03:31:24;;;;;;;32.33;20.70;;;;;;;;;;5038066;28;20408;-85
2021/01/26 03:33:53;;;;;;;34.47;21.38;;;;;;;;;;5037913;28;20026;-85
2021/01/26 03:36:19;;;;;;;32.00;20.40;;;;;;;;;;5038070;28;20021;-86
2021/01/26 03:38:45;;;;;;;35.60;21.85;;;;;;;;;;5038072;28;20022;-86
2021/01/26 03:41:11;;;;;;;35.38;21.17;;;;;;;;;;5037652;28;20400;-86
2021/01/26 03:43:38;;;;;;;36.58;20.75;;;;;;;;;;5037700;28;20041;-87
2021/01/26 03:46:07;;;;;;;32.35;20.30;;;;;;;;;;5037730;28;20408;-87
2021/01/26 03:48:43;;;;;;;33.17;20.00;;;;;;;;;;5037666;28;20048;-86
2021/01/26 03:51:16;;;;;;;32.95;21.23;;;;;;;;;;5037738;28;20021;-86
2021/01/26 03:53:51;;;;;;;30.73;19.35;;;;;;;;;;5037787;28;20104;-87
2021/01/26 03:56:26;;;;;;;29.13;17.92;;;;;;;;;;5037743;28;20022;-86
2021/01/26 03:59:01;;;;;;;28.45;17.77;;;;;;;;;;5037737;28;20028;-87
2021/01/26 04:01:37;;;;;;;30.35;18.83;;;;;;;;;;5036562;28;20100;-85
2021/01/26 04:04:04;;;;;;;29.00;18.98;;;;;;;;;;5037558;28;20112;-88
2021/01/26 04:06:35;;;;;;;28.10;17.55;;;;;;;;;;5036554;28;20029;-87
2021/01/26 04:09:05;;;;;;;27.95;16.35;;;;;;;;;;5037508;28;20021;-88
2021/01/26 04:11:33;;;;;;;23.83;15.43;;;;;;;;;;5037577;28;20038;-86
2021/01/26 04:14:08;;;;;;;28.65;17.08;;;;;;;;;;5036384;28;20083;-87
2021/01/26 04:16:40;;;;;;;26.45;16.80;;;;;;;;;;5037383;28;20049;-85
2021/01/26 04:19:07;;;;;;;27.17;17.10;;;;;;;;;;5037349;28;20104;-85
2021/01/26 04:21:35;;;;;;;26.02;15.93;;;;;;;;;;5040454;28;20045;-85
2021/01/26 04:24:01;;;;;;;27.92;16.95;;;;;;;;;;5041077;28;20049;-85
2021/01/26 04:26:31;;;;;;;32.10;19.52;;;;;;;;;;5040316;28;20116;-84
2021/01/26 04:28:57;;;;;;;35.53;21.08;;;;;;;;;;5041200;28;20034;-84
2021/01/26 04:31:23;;;;;;;31.27;19.02;;;;;;;;;;5041176;28;20037;-84
2021/01/26 04:33:50;;;;;;;28.42;17.65;;;;;;;;;;5041069;28;20033;-85
2021/01/26 04:36:17;;;;;;;31.23;17.85;;;;;;;;;;5041165;28;20062;-86
2021/01/26 04:38:43;;;;;;;29.00;16.92;;;;;;;;;;5040213;28;20404;-87
2021/01/26 04:41:12;;;;;;;28.52;17.27;;;;;;;;;;5041150;28;20029;-86
2021/01/26 04:43:57;;;;;;;30.88;18.05;;;;;;;;;;5040130;28;20029;-85
2021/01/26 04:46:29;;;;;;;30.77;18.20;;;;;;;;;;5041063;28;20017;-86
2021/01/26 04:49:07;;;;;;;30.23;18.00;;;;;;;;;;5041034;28;20079;-86
2021/01/26 04:51:33;;;;;;;28.52;18.58;;;;;;;;;;5040790;28;20033;-86
2021/01/26 04:54:09;;;;;;;27.65;18.10;;;;;;;;;;5040937;28;20048;-86
2021/01/26 04:56:38;;;;;;;30.05;17.75;;;;;;;;;;5040928;28;20424;-83
2021/01/26 04:59:08;;;;;;;30.45;17.33;;;;;;;;;;5040944;28;20100;-83
2021/01/26 05:01:52;;;;;;;30.70;17.95;;;;;;;;;;5039848;28;20021;-86
2021/01/26 05:04:37;;;;;;;33.60;19.30;;;;;;;;;;5040669;28;20075;-86
2021/01/26 05:07:41;;;;;;;37.97;22.20;;;;;;;;;;5040969;28;20032;-87
2021/01/26 05:10:16;;;;;;;32.38;18.23;;;;;;;;;;4999280;28;20602;-86
2021/01/26 05:12:44;;;;;;;31.60;16.75;;;;;;;;;;4999338;28;20031;-83
2021/01/26 05:15:13;;;;;;;30.20;18.58;;;;;;;;;;4998930;28;20038;-88
2021/01/26 05:17:42;;;;;;;38.20;19.98;;;;;;;;;;4999143;28;20054;-82
2021/01/26 05:20:08;;;;;;;37.33;19.70;;;;;;;;;;4998818;28;20026;-80
2021/01/26 05:22:49;;;;;;;32.20;18.48;;;;;;;;;;4998628;28;20037;-81
2021/01/26 05:25:17;;;;;;;34.83;19.13;;;;;;;;;;4998730;28;20050;-81
2021/01/26 05:27:43;;;;;;;33.75;19.13;;;;;;;;;;4998662;28;20038;-81
2021/01/26 05:30:12;;;;;;;31.80;19.00;;;;;;;;;;4998878;28;20031;-82
2021/01/26 05:32:42;;;;;;;30.90;17.98;;;;;;;;;;4998011;28;20027;-82
2021/01/26 05:35:08;;;;;;;30.83;18.17;;;;;;;;;;4998482;28;20049;-81
2021/01/26 05:37:34;;;;;;;33.88;18.15;;;;;;;;;;4998124;28;20105;-82
2021/01/26 05:40:04;;;;;;;33.83;18.17;;;;;;;;;;5005051;28;20351;-82
2021/01/26 05:42:30;;;;;;;33.70;18.75;;;;;;;;;;5039229;28;20055;-82
2021/01/26 05:44:59;;;;;;;30.02;17.25;;;;;;;;;;5039757;28;20029;-82
2021/01/26 05:47:30;;;;;;;31.52;19.02;;;;;;;;;;5039728;28;20068;-82
2021/01/26 05:49:56;;;;;;;30.05;17.75;;;;;;;;;;5039444;28;20029;-81
2021/01/26 05:52:35;;;;;;;35.95;18.15;;;;;;;;;;5039323;28;20539;-82
2021/01/26 05:55:03;;;;;;;37.17;20.50;;;;;;;;;;5039408;28;20029;-81
2021/01/26 05:57:36;;;;;;;36.13;20.90;;;;;;;;;;5039427;28;20013;-81
2021/01/26 06:00:17;;;;;;;34.67;20.10;;;;;;;;;;5039322;28;20017;-81
2021/01/26 06:02:43;;;;;;;35.20;19.42;;;;;;;;;;5039197;28;20052;-82
2021/01/26 06:05:14;;;;;;;31.38;19.10;;;;;;;;;;5039228;28;20029;-82
2021/01/26 06:07:40;;;;;;;34.80;21.55;;;;;;;;;;5039328;28;20029;-82
2021/01/26 06:10:17;;;;;;;31.90;18.45;;;;;;;;;;5039108;28;20025;-81
2021/01/26 06:12:56;;;;;;;28.83;17.75;;;;;;;;;;5039057;28;20033;-82
2021/01/26 06:15:24;;;;;;;30.83;17.35;;;;;;;;;;5038866;28;20025;-81
2021/01/26 06:17:51;;;;;;;29.08;17.85;;;;;;;;;;5039052;28;20032;-81
2021/01/26 06:20:21;;;;;;;28.73;16.77;;;;;;;;;;5037862;28;20023;-82
2021/01/26 06:22:48;;;;;;;29.58;19.08;;;;;;;;;;5038783;28;20315;-82
2021/01/26 06:25:25;;;;;;;27.65;17.75;;;;;;;;;;5038753;28;20036;-82
2021/01/26 06:27:55;;;;;;;25.67;16.50;;;;;;;;;;5037681;28;20104;-81
2021/01/26 06:30:39;;;;;;;27.92;17.50;;;;;;;;;;5038954;28;20021;-81
2021/01/26 06:33:09;;;;;;;27.02;15.23;;;;;;;;;;5038723;28;20415;-82
2021/01/26 06:35:41;;;;;;;28.23;16.15;;;;;;;;;;5038582;28;20091;-82
2021/01/26 06:38:13;;;;;;;27.90;16.40;;;;;;;;;;5038684;28;20028;-81
2021/01/26 06:40:42;;;;;;;29.35;17.00;;;;;;;;;;5038469;28;20021;-81
2021/01/26 06:43:29;;;;;;;35.90;20.17;;;;;;;;;;5036807;28;20057;-81
2021/01/26 06:46:18;;;;;;;47.83;24.73;;;;;;;;;;5038236;28;20176;-82
2021/01/26 06:48:51;;;;;;;35.97;19.90;;;;;;;;;;5036523;28;20372;-82
2021/01/26 06:51:17;;;;;;;;;;;;;;;;;;5036919;28;20061;-82
2021/01/26 06:53:43;;;;;;;29.52;15.82;;;;;;;;;;5036424;28;19909;-82
2021/01/26 06:56:18;;;;;;;28.67;16.40;;;;;;;;;;5036462;28;20018;-82
2021/01/26 06:58:44;;;;;;;28.75;16.50;;;;;;;;;;5036283;28;20021;-81
2021/01/26 07:01:30;;;;;;;29.67;15.80;;;;;;;;;;5036244;28;20026;-82
2021/01/26 07:04:18;;;;;;;30.00;17.45;;;;;;;;;;5036422;28;20036;-81
2021/01/26 07:06:47;;;;;;;36.60;20.13;;;;;;;;;;5036005;28;20025;-82
2021/01/26 07:09:16;;;;;;;43.00;22.38;;;;;;;;;;5036104;28;20025;-81
2021/01/26 07:11:50;;;;;;;60.17;33.30;;;;;;;;;;5035993;28;20208;-83
2021/01/26 07:14:24;;;;;;;41.60;24.00;;;;;;;;;;5035929;28;20056;-81
2021/01/26 07:16:59;;;;;;;41.60;24.05;;;;;;;;;;5035993;28;20407;-80
2021/01/26 07:19:34;;;;;;;43.28;23.90;;;;;;;;;;5035961;28;20095;-80
2021/01/26 07:22:09;;;;;;;39.05;24.20;;;;;;;;;;5035848;28;20021;-82
2021/01/26 07:24:38;;;;;;;39.45;20.27;;;;;;;;;;5035937;28;20231;-82
2021/01/26 07:27:17;;;;;;;36.92;19.17;;;;;;;;;;5037988;28;20025;-80
2021/01/26 07:29:49;;;;;;;32.85;18.60;;;;;;;;;;5036517;28;20036;-82
2021/01/26 07:32:27;;;;;;;37.15;20.08;;;;;;;;;;5037899;28;20029;-81
2021/01/26 07:34:56;;;;;;;36.08;18.77;;;;;;;;;;5037571;28;20035;-83
2021/01/26 07:37:24;;;;;;;33.20;18.38;;;;;;;;;;5037430;28;20022;-82
2021/01/26 07:40:13;;;;;;;36.50;19.08;;;;;;;;;;5037411;28;20021;-81
2021/01/26 07:42:48;;;;;;;55.72;29.15;;;;;;;;;;5035822;28;20047;-82
2021/01/26 07:45:19;;;;;;;31.35;18.73;;;;;;;;;;5037348;28;20033;-82
2021/01/26 07:48:03;;;;;;;31.83;18.73;;;;;;;;;;5037423;28;20029;-81
2021/01/26 07:50:45;;;;;;;32.10;18.25;;;;;;;;;;5037614;28;20052;-81
2021/01/26 07:53:29;;;;;;;33.42;19.00;;;;;;;;;;5037201;28;20075;-83
2021/01/26 07:56:06;;;;;;;31.83;18.35;;;;;;;;;;5032711;28;20179;-82
2021/01/26 07:58:34;;;;;;;34.50;19.50;;;;;;;;;;5037175;28;20026;-82
2021/01/26 08:01:01;;;;;;;39.42;20.88;;;;;;;;;;5036847;28;20324;-82
2021/01/26 08:03:29;;;;;;;37.05;20.95;;;;;;;;;;5036856;28;20025;-81
2021/01/26 08:05:56;;;;;;;35.20;19.27;;;;;;;;;;5035991;28;20045;-83
2021/01/26 08:08:30;;;;;;;34.88;19.63;;;;;;;;;;5036319;28;20025;-81
2021/01/26 08:11:20;;;;;;;35.50;19.80;;;;;;;;;;5034896;28;20095;-80
2021/01/26 08:13:53;;;;;;;34.63;19.63;;;;;;;;;;5033404;28;20099;-82
2021/01/26 08:16:31;;;;;;;42.90;22.92;;;;;;;;;;5036955;28;20054;-81
2021/01/26 08:18:57;;;;;;;51.95;27.85;;;;;;;;;;5036665;28;20028;-84
2021/01/26 08:21:27;;;;;;;56.30;28.98;;;;;;;;;;5036648;28;20297;-81
2021/01/26 08:24:07;;;;;;;44.53;23.42;;;;;;;;;;5035466;28;20026;-79
2021/01/26 08:26:33;;;;;;;44.90;25.15;;;;;;;;;;5035351;28;20017;-80
2021/01/26 08:28:59;;;;;;;45.03;24.20;;;;;;;;;;5033351;28;20125;-82
2021/01/26 08:31:35;;;;;;;40.65;23.02;;;;;;;;;;5037072;28;20407;-80
2021/01/26 08:34:22;;;;;;;48.95;25.23;;;;;;;;;;5036433;28;20320;-81
2021/01/26 08:37:07;;;;;;;46.25;24.50;;;;;;;;;;4978890;28;20336;-80
2021/01/26 08:39:39;;;;;;;42.70;21.98;;;;;;;;;;4995428;28;20030;-80
2021/01/26 08:42:07;;;;;;;47.67;24.10;;;;;;;;;;4995215;28;20042;-79
2021/01/26 08:44:35;;;;;;;48.78;24.15;;;;;;;;;;4995311;28;20355;-80
2021/01/26 08:47:19;;;;;;;38.00;21.02;;;;;;;;;;4995366;28;20036;-79
2021/01/26 08:49:45;;;;;;;46.30;24.20;;;;;;;;;;4995479;28;20129;-88
2021/01/26 08:52:23;;;;;;;46.78;24.65;;;;;;;;;;4981767;28;20357;-82
2021/01/26 08:54:50;;;;;;;55.88;28.20;;;;;;;;;;4985913;28;20314;-82
2021/01/26 08:57:28;;;;;;;44.22;23.40;;;;;;;;;;4998959;28;20411;-81
2021/01/26 08:59:55;;;;;;;44.35;24.13;;;;;;;;;;4987108;28;20105;-81
2021/01/26 09:02:38;;;;;;;42.75;22.30;;;;;;;;;;4993846;28;20033;-81
2021/01/26 09:05:05;;;;;;;32.40;17.25;;;;;;;;;;4975803;28;20035;-81
2021/01/26 09:07:47;;;;;;;37.22;20.13;;;;;;;;;;4988505;28;20118;-83
2021/01/26 09:10:25;;;;;;;37.90;21.23;;;;;;;;;;4999068;28;20034;-81
2021/01/26 09:12:52;;;;;;;37.40;19.65;;;;;;;;;;4998795;28;20034;-81
2021/01/26 09:15:19;;;;;;;38.90;20.02;;;;;;;;;;5020518;28;20108;-80
2021/01/26 09:17:46;;;;;;;45.08;21.63;;;;;;;;;;5033550;28;20026;-81
2021/01/26 09:20:19;;;;;;;37.20;19.60;;;;;;;;;;5039773;28;20096;-82
2021/01/26 09:22:45;;;;;;;38.53;20.80;;;;;;;;;;5039668;28;20017;-77
2021/01/26 09:25:16;;;;;;;35.38;18.55;;;;;;;;;;5039659;28;20030;-82
2021/01/26 09:27:42;;;;;;;40.08;21.50;;;;;;;;;;5040222;28;20022;-81
2021/01/26 09:30:18;;;;;;;37.22;21.70;;;;;;;;;;5039414;28;20026;-79
2021/01/26 09:32:46;;;;;;;35.47;19.67;;;;;;;;;;5039978;28;20032;-81
2021/01/26 09:35:24;;;;;;;38.05;19.67;;;;;;;;;;5040276;28;20407;-81
2021/01/26 09:38:12;;;;;;;49.15;24.05;;;;;;;;;;5039929;28;20097;-80
2021/01/26 09:40:40;;;;;;;40.10;20.45;;;;;;;;;;5039752;28;20017;-82
2021/01/26 09:43:11;;;;;;;40.28;21.48;;;;;;;;;;5039374;28;20053;-80
2021/01/26 09:45:38;;;;;;;36.40;19.73;;;;;;;;;;5039647;28;20026;-81
2021/01/26 09:48:04;;;;;;;54.05;25.83;;;;;;;;;;5039936;28;20074;-81
2021/01/26 09:50:30;;;;;;;40.92;22.60;;;;;;;;;;5039490;28;20407;-81
2021/01/26 09:52:59;;;;;;;37.72;20.55;;;;;;;;;;5039595;28;20037;-82
2021/01/26 09:55:27;;;;;;;36.78;20.20;;;;;;;;;;5038750;28;20038;-82
2021/01/26 09:57:54;;;;;;;40.88;21.88;;;;;;;;;;5039699;28;20364;-80
2021/01/26 10:00:22;;;;;;;36.65;19.40;;;;;;;;;;5038479;28;20108;-80
2021/01/26 10:02:52;;;;;;;37.58;20.52;;;;;;;;;;5039252;28;20022;-81
2021/01/26 10:05:19;;;;;;;37.38;19.85;;;;;;;;;;5039323;28;20060;-78
2021/01/26 10:07:45;;;;;;;33.88;18.98;;;;;;;;;;5036237;28;20339;-79
2021/01/26 10:10:19;;;;;;;36.28;18.90;;;;;;;;;;5037680;28;20393;-81
2021/01/26 10:12:45;;;;;;;37.05;19.65;;;;;;;;;;5039193;28;20034;-83
2021/01/26 10:15:24;;;;;;;36.00;19.70;;;;;;;;;;5038585;28;20036;-81
2021/01/26 10:17:54;;;;;;;35.80;19.38;;;;;;;;;;5038496;28;20029;-81
2021/01/26 10:20:28;;;;;;;36.65;18.52;;;;;;;;;;5038744;28;20105;-82
2021/01/26 10:23:14;;;;;;;35.08;19.35;;;;;;;;;;5037660;28;20045;-81
2021/01/26 10:25:42;;;;;;;39.60;21.13;;;;;;;;;;5039095;28;20033;-83
2021/01/26 10:28:08;;;;;;;40.88;22.25;;;;;;;;;;5038881;28;20083;-82
2021/01/26 10:30:39;;;;;;;42.85;23.98;;;;;;;;;;5038801;28;20097;-82
2021/01/26 10:33:05;;;;;;;51.58;29.27;;;;;;;;;;5037538;28;20386;-82
2021/01/26 10:35:34;;;;;;;38.58;21.60;;;;;;;;;;5037404;28;20030;-79
2021/01/26 10:38:20;;;;;;;44.70;23.17;;;;;;;;;;5056820;28;20032;-79
2021/01/26 10:40:46;;;;;;;40.03;22.67;;;;;;;;;;5016655;28;20052;-80
2021/01/26 10:43:20;;;;;;;34.85;19.30;;;;;;;;;;5016644;28;20544;-82
2021/01/26 10:45:48;;;;;;;39.05;20.63;;;;;;;;;;5016658;28;20049;-80
2021/01/26 10:48:22;;;;;;;62.22;32.20;;;;;;;;;;5016943;28;20029;-80
2021/01/26 10:50:48;;;;;;;50.70;25.38;;;;;;;;;;4972788;28;20035;-82
2021/01/26 10:53:33;;;;;;;79.63;40.17;;;;;;;;;;4977353;28;20046;-79
2021/01/26 10:56:00;;;;;;;165.38;63.35;;;;;;;;;;4980522;28;20062;-78
2021/01/26 10:58:26;;;;;;;102.00;44.70;;;;;;;;;;4996920;28;20046;-78
2021/01/26 11:00:52;;;;;;;70.95;34.88;;;;;;;;;;4995840;28;20045;-78
2021/01/26 11:03:18;;;;;;;45.05;24.15;;;;;;;;;;4980375;28;20495;-78
2021/01/26 11:05:44;;;;;;;80.28;33.95;;;;;;;;;;4996578;28;20111;-78
2021/01/26 11:08:10;;;;;;;39.33;20.98;;;;;;;;;;4996807;28;20105;-80
2021/01/26 11:10:37;;;;;;;39.70;20.23;;;;;;;;;;4996337;28;20049;-80
2021/01/26 11:13:03;;;;;;;56.65;26.45;;;;;;;;;;4995934;28;20053;-79
2021/01/26 11:15:29;;;;;;;61.92;31.15;;;;;;;;;;4996110;28;20038;-80
2021/01/26 11:17:56;;;;;;;71.75;34.03;;;;;;;;;;5009032;28;20030;-81
2021/01/26 11:20:22;;;;;;;114.43;46.28;;;;;;;;;;5037656;28;20029;-82
2021/01/26 11:22:48;;;;;;;37.25;20.40;;;;;;;;;;5036935;28;20022;-81
2021/01/26 11:25:15;;;;;;;40.45;20.45;;;;;;;;;;5036814;28;20038;-82
2021/01/26 11:27:41;;;;;;;54.08;25.98;;;;;;;;;;5037718;28;20108;-83
2021/01/26 11:30:09;;;;;;;33.92;17.88;;;;;;;;;;5036807;28;20029;-81
2021/01/26 11:32:35;;;;;;;27.60;14.55;;;;;;;;;;5036727;28;20029;-81
2021/01/26 11:35:02;;;;;;;30.63;18.70;;;;;;;;;;5037331;28;20055;-80
2021/01/26 11:37:28;;;;;;;29.63;16.02;;;;;;;;;;5036081;28;20026;-81
2021/01/26 11:39:54;;;;;;;39.13;19.95;;;;;;;;;;5037323;28;20021;-83
2021/01/26 11:42:20;;;;;;;40.38;19.52;;;;;;;;;;5037241;28;20072;-80
2021/01/26 11:44:46;;;;;;;77.53;31.65;;;;;;;;;;5037628;28;20053;-83
2021/01/26 11:47:12;;;;;;;51.15;24.17;;;;;;;;;;5034432;28;20416;-79
2021/01/26 11:49:38;;;;;;;74.35;32.08;;;;;;;;;;5036016;28;20035;-80
2021/01/26 11:52:04;;;;;;;31.77;17.60;;;;;;;;;;5037248;28;20021;-79
2021/01/26 11:54:30;;;;;;;35.03;18.52;;;;;;;;;;5037079;28;20025;-80
2021/01/26 11:56:56;;;;;;;99.38;42.85;;;;;;;;;;5037064;28;20026;-81
2021/01/26 11:59:22;;;;;;;29.67;15.10;;;;;;;;;;5037056;28;20025;-80
2021/01/26 12:01:48;;;;;;;85.25;38.92;;;;;;;;;;5036974;28;20032;-81
2021/01/26 12:04:14;;;;;;;36.22;19.20;;;;;;;;;;5036895;28;20041;-79
2021/01/26 12:06:40;;;;;;;37.97;20.27;;;;;;;;;;5036742;28;20026;-86
2021/01/26 12:09:06;;;;;;;36.03;19.73;;;;;;;;;;5036751;28;20033;-82
2021/01/26 12:11:32;;;;;;;36.65;19.48;;;;;;;;;;5037020;28;20029;-81
2021/01/26 12:14:00;;;;;;;42.05;24.05;;;;;;;;;;5036830;28;20032;-79
2021/01/26 12:16:26;;;;;;;33.30;19.08;;;;;;;;;;5036580;28;20068;-78
2021/01/26 12:18:52;;;;;;;36.10;21.13;;;;;;;;;;5036682;28;20288;-80
2021/01/26 12:21:18;;;;;;;37.75;19.35;;;;;;;;;;5035997;28;20415;-80
2021/01/26 12:23:48;;;;;;;37.47;22.17;;;;;;;;;;5036810;28;20021;-80
2021/01/26 12:26:14;;;;;;;36.70;22.20;;;;;;;;;;5037009;28;20030;-80
2021/01/26 12:28:41;;;;;;;35.10;18.52;;;;;;;;;;5036847;28;20021;-81
2021/01/26 12:31:07;;;;;;;42.97;23.17;;;;;;;;;;5036729;28;20086;-81
2021/01/26 12:33:33;;;;;;;35.15;20.85;;;;;;;;;;5036250;28;20431;-81
2021/01/26 12:35:59;;;;;;;42.20;22.83;;;;;;;;;;5036791;28;20025;-79
2021/01/26 12:38:26;;;;;;;36.88;20.30;;;;;;;;;;5036484;28;20091;-81
2021/01/26 12:40:52;;;;;;;54.03;30.48;;;;;;;;;;5036673;28;20049;-82
2021/01/26 12:43:18;;;;;;;40.17;23.92;;;;;;;;;;5039629;28;20080;-79
2021/01/26 12:45:44;;;;;;;48.20;26.42;;;;;;;;;;5040456;28;20029;-81
2021/01/26 12:48:10;;;;;;;39.75;21.38;;;;;;;;;;5039954;28;20314;-81
2021/01/26 12:50:37;;;;;;;51.55;29.23;;;;;;;;;;5039683;28;20037;-79
2021/01/26 12:53:04;;;;;;;64.00;34.63;;;;;;;;;;5040502;28;20104;-79
2021/01/26 12:55:30;;;;;;;43.58;24.27;;;;;;;;;;5039919;28;20025;-79
2021/01/26 12:57:56;;;;;;;66.32;41.58;;;;;;;;;;5040361;28;20029;-80
2021/01/26 13:00:24;;;;;;;50.92;26.95;;;;;;;;;;5039339;28;20033;-80
2021/01/26 13:02:50;;;;;;;56.65;32.47;;;;;;;;;;5039984;28;20027;-80
2021/01/26 13:05:17;;;;;;;36.08;21.38;;;;;;;;;;5040483;28;20096;-79
2021/01/26 13:07:44;;;;;;;32.10;18.13;;;;;;;;;;5040364;28;20316;-81
2021/01/26 13:10:11;;;;;;;41.42;20.65;;;;;;;;;;5039938;28;20037;-79
2021/01/26 13:12:37;;;;;;;29.80;16.48;;;;;;;;;;5039749;28;20033;-81
2021/01/26 13:15:04;;;;;;;38.17;19.52;;;;;;;;;;5039928;28;20079;-79
2021/01/26 13:17:30;;;;;;;38.58;19.02;;;;;;;;;;5039749;28;20136;-81
2021/01/26 13:19:56;;;;;;;34.25;18.77;;;;;;;;;;5040037;28;20024;-81
2021/01/26 13:22:22;;;;;;;34.50;20.20;;;;;;;;;;5039142;28;20030;-81
2021/01/26 13:24:48;;;;;;;36.53;19.95;;;;;;;;;;5038898;28;20036;-81
2021/01/26 13:27:15;;;;;;;33.13;18.40;;;;;;;;;;5039988;28;20036;-80
2021/01/26 13:29:41;;;;;;;28.83;16.70;;;;;;;;;;5039861;28;20059;-81
2021/01/26 13:32:08;;;;;;;29.65;16.63;;;;;;;;;;5039729;28;20045;-81
2021/01/26 13:34:34;;;;;;;24.73;14.38;;;;;;;;;;5040030;28;20036;-80
2021/01/26 13:37:00;;;;;;;24.33;14.88;;;;;;;;;;5039715;28;20033;-80
2021/01/26 13:39:26;;;;;;;24.27;14.98;;;;;;;;;;5039682;28;20021;-81
2021/01/26 13:41:56;;;;;;;26.20;14.70;;;;;;;;;;5039352;28;20050;-81
2021/01/26 13:44:22;;;;;;;26.30;15.52;;;;;;;;;;5039595;28;20033;-82
2021/01/26 13:46:48;;;;;;;26.35;15.15;;;;;;;;;;5039453;28;20028;-81
2021/01/26 13:49:14;;;;;;;29.13;15.65;;;;;;;;;;5039738;28;20025;-81
2021/01/26 13:51:40;;;;;;;26.13;15.80;;;;;;;;;;5039336;28;20060;-81
2021/01/26 13:54:06;;;;;;;27.50;16.13;;;;;;;;;;5038749;28;20036;-81
2021/01/26 13:56:33;;;;;;;28.58;16.52;;;;;;;;;;5039537;28;20132;-82
2021/01/26 13:58:59;;;;;;;28.52;15.95;;;;;;;;;;5038612;28;20418;-82
2021/01/26 14:01:25;;;;;;;28.63;16.38;;;;;;;;;;5038480;28;20025;-81
2021/01/26 14:03:51;;;;;;;25.00;14.73;;;;;;;;;;5039283;28;20017;-82
2021/01/26 14:06:18;;;;;;;27.52;16.38;;;;;;;;;;5038813;28;20024;-81
2021/01/26 14:08:44;;;;;;;26.17;15.43;;;;;;;;;;5039447;28;20028;-81
2021/01/26 14:11:10;;;;;;;28.55;16.25;;;;;;;;;;5039078;28;20030;-80
2021/01/26 14:13:36;;;;;;;28.00;16.77;;;;;;;;;;5039032;28;20032;-82
2021/01/26 14:16:02;;;;;;;29.05;15.43;;;;;;;;;;5038867;28;20025;-82
2021/01/26 14:18:28;;;;;;;28.42;16.83;;;;;;;;;;5038881;28;20109;-81
2021/01/26 14:20:54;;;;;;;27.55;16.52;;;;;;;;;;5039143;28;20026;-82
2021/01/26 14:23:21;;;;;;;26.70;16.15;;;;;;;;;;5038797;28;20026;-82
2021/01/26 14:25:47;;;;;;;29.63;16.48;;;;;;;;;;5037645;28;20053;-82
2021/01/26 14:28:13;;;;;;;29.25;16.13;;;;;;;;;;5038748;28;20021;-81
2021/01/26 14:30:39;;;;;;;25.65;15.68;;;;;;;;;;5037899;28;20033;-81
2021/01/26 14:33:06;;;;;;;28.48;16.63;;;;;;;;;;5038890;28;20055;-82